METAR Data
IDs: Format: Raw Decoded Include TAF

Data at: 0900 UTC 26 Jan 2020

KFLD 260853Z AUTO 28008KT 8SM BKN009 OVC034 01/M01 A2985 RMK AO2 SLP117 T00111006 53002
KFLD 260753Z AUTO 27007KT 10SM OVC009 02/M01 A2985 RMK AO2 SLP116 T00171006
KFLD 260653Z AUTO 28007KT 10SM BKN009 OVC028 02/00 A2984 RMK AO2 SLP114 T00170000
KFLD 260649Z AUTO 28008KT 10SM BKN009 OVC028 02/00 A2984 RMK AO2 CIG 008V013
KFLD 260640Z AUTO 28007KT 10SM SCT009 BKN012 OVC026 02/00 A2984 RMK AO2 T00170000
KFLD 260553Z AUTO 29009KT 10SM FEW016 OVC022 02/00 A2984 RMK AO2 SLP113 60000 T00170000 10017 20017 400170006 53003
KFLD 260524Z AUTO 28010KT 10SM BKN016 OVC023 02/00 A2984 RMK AO2 T00170000
KFLD 260513Z AUTO 29009KT 10SM BKN014 OVC026 02/00 A2984 RMK AO2 T00170000
KFLD 260502Z AUTO 28008KT 10SM FEW013 SCT017 OVC027 02/00 A2984 RMK AO2 T00170000
KFLD 260453Z AUTO 29008KT 10SM BKN012 OVC027 02/00 A2984 RMK AO2 SLP112 T00170000
KFLD 260430Z AUTO 29008KT 10SM FEW008 BKN012 OVC040 02/00 A2983 RMK AO2 T00170000
KFLD 260416Z AUTO 29009KT 10SM FEW010 BKN041 OVC049 02/00 A2983 RMK AO2 T00170000
KFLD 260353Z AUTO 29009KT 10SM BKN021 OVC049 02/01 A2983 RMK AO2 UPB04E22SNE04B07E19 SLP110 P0000 T00170006
KFLD 260349Z AUTO 29007KT 10SM BKN019 OVC049 02/01 A2983 RMK AO2 UPB04E22SNE04B07E19 P0000
KFLD 260333Z AUTO 28006KT 10SM FEW017 SCT024 OVC049 02/01 A2983 RMK AO2 UPB04E22SNE04B07E19 P0000 T00170006
KFLD 260306Z AUTO 29007KT 6SM UP BR SCT008 BKN015 OVC023 02/01 A2983 RMK AO2 UPB04SNE04 P0000 T00170006
KFLD 260259Z AUTO 29006KT 5SM -SN BR BKN008 BKN014 OVC018 02/01 A2983 RMK AO2 P0000 T00170006
KFLD 260253Z AUTO 28008KT 5SM -SN BR BKN010 OVC017 02/00 A2983 RMK AO2 SNB44 SLP109 P0000 60000 T00170000 51002
KFLD 260239Z AUTO 28007KT 9SM BKN012 BKN017 OVC023 02/00 A2983 RMK AO2 T00170000
KFLD 260202Z AUTO 29008KT 10SM BKN027 BKN034 OVC050 02/00 A2983 RMK AO2 T00170000
KFLD 260153Z AUTO 29008KT 10SM SCT027 BKN034 OVC050 02/00 A2983 RMK AO2 UPE0054 SLP109 P0000 T00170000
KFLD 260114Z AUTO 28007KT 10SM FEW021 BKN043 OVC049 02/00 A2983 RMK AO2 UPE0054 P0000 T00170000
KFLD 260053Z AUTO 28006KT 10SM UP SCT015 OVC022 02/00 A2983 RMK AO2 UPE03B31 SLP109 P0000 T00170000
KFLD 252353Z AUTO 29006KT 10SM UP BKN017 OVC022 02/00 A2982 RMK AO2 UPB53 SLP107 P0000 60000 T00170000 10017 20011 53012
KFLD 252300Z AUTO 28004KT 10SM SCT010 OVC016 02/00 A2981 RMK AO2 T00170000
KFLD 252253Z AUTO 29005KT 10SM BKN008 OVC013 02/00 A2980 RMK AO2 SLP101 T00170000
KFLD 252153Z AUTO 31005KT 10SM OVC009 02/M01 A2979 RMK AO2 SLP097 T00171006
KFLD 252100Z AUTO 31007KT 10SM OVC009 02/M01 A2979 RMK AO2 T00171006
KFLD 252053Z AUTO 31006KT 10SM OVC010 02/M01 A2979 RMK AO2 SLP095 T00171006 53002
KFLD 252027Z AUTO 31007KT 10SM OVC011 02/M01 A2978 RMK AO2 T00171006
KFLD 251953Z AUTO 32009KT 10SM OVC007 02/M01 A2977 RMK AO2 CIG 007V010 SLP090 T00171006
KFLD 251853Z AUTO 32007KT 10SM OVC008 01/M01 A2977 RMK AO2 SLP090 T00111006
KFLD 251753Z AUTO 33006KT 10SM OVC008 01/M01 A2978 RMK AO2 CIG 007V012 SLP092 60007 T00111011 10017 20006 50003
KFLD 251724Z AUTO 33007KT 10SM OVC009 01/M01 A2979 RMK AO2 CIG 007V011 T00111011
KFLD 251653Z AUTO 33006KT 10SM OVC010 02/M01 A2979 RMK AO2 SNE24 SLP096 P0000 T00171006
KFLD 251629Z AUTO 33006KT 9SM OVC010 01/M01 A2979 RMK AO2 SNE24 CIG 006V012 P0000 T00111006
KFLD 251553Z AUTO 32007KT 9SM -SN BKN007 OVC012 01/M01 A2978 RMK AO2 SLP093 P0000 T00111006
KFLD 251546Z AUTO 32006KT 5SM -SN BR BKN007 OVC012 01/M01 A2978 RMK AO2 P0000 T00061006
KFLD 251502Z AUTO 32006KT 2 1/2SM -SN BR BKN006 OVC027 01/M01 A2977 RMK AO2 P0000 T00061006
KFLD 251453Z AUTO 32005KT 3SM -SN BR BKN006 OVC025 01/M01 A2977 RMK AO2 SLP089 P0001 60007 T00061006 50003
KFLD 251450Z AUTO 32005KT 3SM -SN BR BKN006 OVC025 01/M01 A2977 RMK AO2 P0001
KFLD 251432Z AUTO 32006KT 2SM -SN BR BKN006 OVC021 01/M01 A2977 RMK AO2 P0001 T00061006
KFLD 251418Z AUTO 32006KT 1 1/2SM -SN BR BKN006 OVC018 01/M01 A2977 RMK AO2 P0001 T00061006
KFLD 251412Z AUTO 32005KT 2 1/2SM -SN BR BKN005 OVC018 01/M01 A2977 RMK AO2 P0000 T00061006
KFLD 251403Z AUTO 33006KT 1 3/4SM -SN BR BKN005 OVC014 01/M01 A2977 RMK AO2 P0000 T00061006
KFLD 251353Z AUTO 32006KT 1SM -SN BR SCT005 OVC012 01/M01 A2977 RMK AO2 SLP090 P0003 T00061006
KFLD 251336Z AUTO 32007KT 3/4SM -SN BR SCT005 OVC012 01/M01 A2977 RMK AO2 P0002 T00061006
KFLD 251320Z AUTO 31007KT 1 1/2SM -SN BR SCT005 OVC014 01/M01 A2977 RMK AO2 P0001 T00061006
KFLD 251312Z AUTO 31006KT 1 3/4SM -SN BR SCT005 OVC016 01/M01 A2976 RMK AO2 P0001 T00061006
KFLD 251253Z AUTO 31007KT 1 3/4SM -SN BR SCT006 OVC014 01/M01 A2976 RMK AO2 SLP086 P0003 T00061006
KFLD 251224Z AUTO 31006KT 1 1/2SM -SN BR SCT006 OVC013 01/M01 A2976 RMK AO2 P0002 T00061006
KFLD 251212Z AUTO 32006KT 1 1/2SM -SN BR BKN006 OVC011 01/M01 A2975 RMK AO2 P0001 T00061006
KFLD 251201Z AUTO 32006KT 1 3/4SM -SN BR BKN005 OVC011 01/M01 A2975 RMK AO2 P0001 T00061006
KFLD 251153Z AUTO 32005KT 1 1/2SM -SN BR SCT005 OVC011 01/M01 A2975 RMK AO2 SLP082 P0003 60011 70027 T00061006 10011 20006 53002
KFLD 251136Z AUTO 32005KT 1 1/2SM -SN BR BKN006 OVC011 01/M01 A2974 RMK AO2 P0002 T00061006
KFLD 251123Z AUTO 31005KT 1 1/2SM -SN BR BKN005 OVC011 01/00 A2974 RMK AO2 P0001 T00060000
KFLD 251113Z AUTO 32005KT 1 3/4SM -SN BR OVC005 01/00 A2975 RMK AO2 P0001 T00060000
KFLD 251104Z AUTO 33005KT 2SM -SN BR OVC004 01/00 A2975 RMK AO2 CIG 003V009 P0000 T00060000
KFLD 251053Z AUTO 33005KT 1 3/4SM -SN BR OVC004 01/00 A2974 RMK AO2 CIG 003V009 SLP080 P0003 T00060000
KFLD 251018Z AUTO 34004KT 1 1/2SM -SN BR OVC004 01/00 A2974 RMK AO2 P0001 T00110000
KFLD 251008Z AUTO 33004KT 2 1/2SM -SN BR OVC004 01/00 A2974 RMK AO2 P0001 T00110000
KFLD 250953Z AUTO 33005KT 3SM -SN BR OVC004 01/00 A2974 RMK AO2 SLP080 P0001 T00110000
KFLD 250945Z AUTO 33005KT 2 1/2SM -SN BR OVC004 01/00 A2974 RMK AO2 P0001 T00110000
KFLD 250938Z AUTO 33005KT 1 3/4SM -SN BR OVC004 01/00 A2974 RMK AO2 P0001 T00110000
KFLD 250853Z AUTO 33004KT 2 1/2SM -SN BR OVC004 01/00 A2975 RMK AO2 SLP082 P0002 60004 T00110000 58003
KFLD 250849Z AUTO 34004KT 2 1/2SM -SN BR OVC004 01/00 A2975 RMK AO2 P0002
KFLD 250826Z AUTO 35004KT 1 3/4SM -SN BR OVC004 01/00 A2976 RMK AO2 P0001 T00110000
KFLD 250753Z AUTO 35005KT 1 1/2SM -SN BR OVC004 01/00 A2976 RMK AO2 SLP085 P0002 T00110000
KFLD 250712Z AUTO 36007KT 1 1/2SM -SN BR OVC004 01/00 A2976 RMK AO2 P0000 T00110000
KFLD 250702Z AUTO 35007KT 1 3/4SM -SN BR OVC004 01/00 A2976 RMK AO2 P0000 T00110000
KFLD 250653Z AUTO 35007KT 2SM -SN BR OVC004 01/00 A2976 RMK AO2 SLP084 P0000 T00110000
KFLD 250646Z AUTO 35007KT 2 1/2SM -SN BR OVC004 01/00 A2975 RMK AO2 P0000 T00110000
KFLD 250626Z AUTO 35007KT 3SM -SN BR OVC004 01/00 A2976 RMK AO2 P0000 T00110000
KFLD 250553Z AUTO 36008KT 2SM -SN BR OVC004 01/00 A2977 RMK AO2 SLP089 P0000 60012 T00110000 10017 20011 400220011 58011
KFLD 250546Z AUTO 36007KT 2SM -SN BR OVC004 01/00 A2977 RMK AO2 P0000 T00110000
KFLD 250519Z AUTO 36007KT 3SM -SN BR OVC004 01/00 A2978 RMK AO2 P0000 T00110000
KFLD 250453Z AUTO 35007KT 2SM -SN BR OVC004 01/00 A2978 RMK AO2 SLP092 P0002 T00110000
KFLD 250431Z AUTO 36007KT 2SM -SN BR OVC003 01/00 A2978 RMK AO2 P0001 T00110000
KFLD 250417Z AUTO 36007KT 1 1/2SM -SN BR OVC003 01/00 A2979 RMK AO2 P0001 T00110000
KFLD 250353Z AUTO 36007KT 2SM -SN BR OVC003 01/00 A2979 RMK AO2 SLP098 P0000 T00110000
KFLD 250309Z AUTO 01007KT 2SM -SN BR OVC003 01/00 A2980 RMK AO2 P0000 T00110000
KFLD 250302Z AUTO 36007KT 1 3/4SM -SN BR OVC003 01/00 A2980 RMK AO2 P0000 T00110000
KFLD 250253Z AUTO 36008KT 1 1/2SM -SN BR OVC003 01/00 A2980 RMK AO2 SLP100 P0003 60010 T00110000 58009
KFLD 250153Z AUTO 36007KT 1 1/4SM -SN BR OVC003 01/00 A2981 RMK AO2 SLP103 P0005 T00110000
KFLD 250053Z AUTO 01006KT 1 1/2SM -SN BR OVC003 01/00 A2982 RMK AO2 SLP106 P0002 T00110000
KFLD 250039Z AUTO 02008KT 1 1/2SM -SN BR OVC002 01/00 A2982 RMK AO2 P0002 T00110000
KFLD 250025Z AUTO 02009KT 1 3/4SM -SN BR OVC002 01/00 A2982 RMK AO2 P0001 T00110000
KFLD 242353Z AUTO 03008KT 2 1/2SM -SN BR OVC003 02/01 A2983 RMK AO2 RAE29UPB2254E2257SNB29 SLP109 P0002 60002 T00170006 10022 20011 58001
KFLD 242344Z AUTO 03008KT 2 1/2SM -SN BR OVC003 02/01 A2983 RMK AO2 RAE29UPB2254E2257SNB29 P0002 T00170006
KFLD 242310Z AUTO 03009KT 3SM -RA BR OVC002 02/01 A2983 RMK AO2 UPB2254E2257 CIG 002V005 P0000 T00170006
KFLD 242253Z AUTO 03010KT 2SM -RA BR OVC002 02/01 A2983 RMK AO2 RAB14E33B37 SLP109 P0000 T00170006
KFLD 242251Z AUTO 03009KT 2SM -RA BR OVC002 02/01 A2983 RMK AO2 RAB14E33B37 P0000
KFLD 242235Z AUTO 03009KT 1 3/4SM BR OVC002 02/01 A2983 RMK AO2 RAB14E33 P0000 T00170006
KFLD 242153Z AUTO 03009KT 1SM BR OVC002 02/01 A2983 RMK AO2 SLP109 T00170011